Time;durP1;ratioP1;P1;durP2;ratioP2;P2;SDS_P1;SDS_P2;PMS_P1;PMS_P2;Temp;Humidity;BMP_temperature;BMP_pressure;BME280_temperature;BME280_humidity;BME280_pressure;Samples;Min_cycle;Max_cycle;Signal;HPM_P1;HPM_P2
2024/01/11 00:00:06;;;;;;;31.83;12.90;;;;;;;-148.88;93.53;-17125.47;5035839;28;20032;-76
2024/01/11 00:02:32;;;;;;;38.25;13.60;;;;;;;-148.88;92.47;-17125.47;5035873;28;20052;-76
2024/01/11 00:04:57;;;;;;;27.42;11.15;;;;;;;-148.88;93.31;-17125.47;5035885;28;20488;-76
2024/01/11 00:07:23;;;;;;;34.10;12.07;;;;;;;-148.88;93.24;-17125.47;5034500;28;20022;-76
2024/01/11 00:09:48;;;;;;;33.30;12.80;;;;;;;-148.88;94.41;-17125.47;5035902;28;20026;-76
2024/01/11 00:12:13;;;;;;;34.17;12.63;;;;;;;-148.88;94.12;-17125.47;5035601;28;20036;-76
2024/01/11 00:14:40;;;;;;;32.83;14.02;;;;;;;-148.88;95.73;-17125.47;5035690;28;20021;-76
2024/01/11 00:17:05;;;;;;;36.85;11.82;;;;;;;-148.88;94.87;-17125.47;5035586;28;20055;-76
2024/01/11 00:19:31;;;;;;;29.55;12.30;;;;;;;-148.88;95.23;-17125.47;5035429;28;20488;-76
2024/01/11 00:21:57;;;;;;;30.83;11.43;;;;;;;-148.88;95.06;-17125.47;5034205;28;20045;-77
2024/01/11 00:24:22;;;;;;;34.10;12.77;;;;;;;-148.88;95.13;-17125.47;5035772;28;20384;-76
2024/01/11 00:26:47;;;;;;;36.00;13.55;;;;;;;-148.88;95.07;-17125.47;5035641;28;20025;-76
2024/01/11 00:29:12;;;;;;;26.70;11.98;;;;;;;-148.88;95.72;-17125.47;5035435;28;20120;-76
2024/01/11 00:31:38;;;;;;;32.58;13.13;;;;;;;-148.88;95.81;-17125.47;5035191;28;20369;-76
2024/01/11 00:34:04;;;;;;;31.13;11.30;;;;;;;-148.88;95.81;-17125.47;5034111;28;20029;-76
2024/01/11 00:36:29;;;;;;;32.60;11.65;;;;;;;-148.88;95.24;-17125.47;5035519;28;20455;-76
2024/01/11 00:38:55;;;;;;;37.17;13.05;;;;;;;-148.88;96.07;-17125.47;5035196;28;20536;-76
2024/01/11 00:41:20;;;;;;;28.08;10.55;;;;;;;-148.88;96.39;-17125.47;5035376;28;20029;-76
2024/01/11 00:43:45;;;;;;;27.00;11.65;;;;;;;-148.88;96.21;-17125.47;5035111;28;20053;-76
2024/01/11 00:46:11;;;;;;;34.90;12.05;;;;;;;-148.88;96.30;-17125.47;5034134;28;20083;-76
2024/01/11 00:48:36;;;;;;;30.30;11.50;;;;;;;-148.88;97.29;-17125.47;5035086;28;20452;-76
2024/01/11 00:51:03;;;;;;;26.10;11.02;;;;;;;-148.88;98.25;-17125.47;5034916;28;20435;-76
2024/01/11 00:53:30;;;;;;;37.13;13.13;;;;;;;-148.88;97.96;-17125.47;5034994;28;20112;-76
2024/01/11 00:56:02;;;;;;;37.33;12.35;;;;;;;-148.88;97.25;-17125.47;5034940;28;20036;-75
2024/01/11 00:58:28;;;;;;;28.10;11.60;;;;;;;-148.88;96.93;-17125.47;5034616;28;20120;-76
2024/01/11 01:00:54;;;;;;;33.63;13.23;;;;;;;-148.88;95.82;-17125.47;5034712;28;20049;-76
2024/01/11 01:03:21;;;;;;;36.00;12.15;;;;;;;-148.88;96.47;-17125.47;5033476;28;20036;-76
2024/01/11 01:05:46;;;;;;;33.38;12.55;;;;;;;-148.88;96.05;-17125.47;5033449;28;20025;-76
2024/01/11 01:08:12;;;;;;;37.40;12.25;;;;;;;-148.88;95.24;-17125.47;5033384;28;20435;-76
2024/01/11 01:10:37;;;;;;;35.50;12.48;;;;;;;-148.88;95.35;-17125.47;5034697;28;20060;-76
2024/01/11 01:13:03;;;;;;;29.98;12.55;;;;;;;-148.88;95.64;-17125.47;5034727;28;20053;-76
2024/01/11 01:15:28;;;;;;;32.65;12.00;;;;;;;-148.88;96.69;-17125.47;5034558;28;20484;-75
2024/01/11 01:17:54;;;;;;;36.17;11.30;;;;;;;-148.88;98.51;-17125.47;5034494;28;20440;-75
2024/01/11 01:20:19;;;;;;;33.60;12.55;;;;;;;-148.88;97.39;-17125.47;5034601;28;20531;-76
2024/01/11 01:22:44;;;;;;;37.22;14.85;;;;;;;-148.88;97.25;-17125.47;5034419;28;20484;-75
2024/01/11 01:25:10;;;;;;;30.95;12.73;;;;;;;-148.88;96.84;-17125.47;5034553;28;20075;-76
2024/01/11 01:27:35;;;;;;;30.83;11.52;;;;;;;-148.88;96.42;-17125.47;5034432;28;20017;-76
2024/01/11 01:30:00;;;;;;;32.47;12.70;;;;;;;-148.88;96.18;-17125.47;5034231;28;20061;-75
2024/01/11 01:32:26;;;;;;;30.65;12.85;;;;;;;-148.88;99.43;-17125.47;5034563;28;20116;-75
2024/01/11 01:34:51;;;;;;;32.03;12.82;;;;;;;-148.88;100.00;-17125.47;5034174;28;20033;-75
2024/01/11 01:37:17;;;;;;;30.95;12.38;;;;;;;-148.88;100.00;-17125.47;5034156;28;20087;-75
2024/01/11 01:39:43;;;;;;;26.98;12.13;;;;;;;-148.88;100.00;-17125.47;5032852;28;20056;-75
2024/01/11 01:42:08;;;;;;;31.10;12.30;;;;;;;-148.88;98.39;-17125.47;5033894;28;20056;-76
2024/01/11 01:44:33;;;;;;;31.20;13.02;;;;;;;-148.88;99.16;-17125.47;5034017;28;20105;-76
2024/01/11 01:47:00;;;;;;;31.92;12.70;;;;;;;-148.88;98.87;-17125.47;5033921;28;20402;-75
2024/01/11 01:49:25;;;;;;;27.90;12.25;;;;;;;-148.88;100.00;-17125.47;5032644;28;20025;-76
2024/01/11 01:51:53;;;;;;;32.47;12.77;;;;;;;-148.88;100.00;-17125.47;5033733;28;20109;-76
2024/01/11 01:54:20;;;;;;;32.92;14.10;;;;;;;-148.88;100.00;-17125.47;5033845;28;20025;-75
2024/01/11 01:56:46;;;;;;;35.30;13.43;;;;;;;-148.88;100.00;-17125.47;5034025;28;20043;-75
2024/01/11 01:59:12;;;;;;;30.35;14.18;;;;;;;-148.88;100.00;-17125.47;5033545;28;20472;-75
2024/01/11 02:01:38;;;;;;;30.00;12.27;;;;;;;-148.88;100.00;-17125.47;5033836;28;20029;-76
2024/01/11 02:04:04;;;;;;;38.70;15.30;;;;;;;-148.88;100.00;-17125.47;5033707;28;20053;-75
2024/01/11 02:06:33;;;;;;;33.00;12.80;;;;;;;-148.88;100.00;-17125.47;5034136;28;20419;-75
2024/01/11 02:08:59;;;;;;;25.23;10.63;;;;;;;-148.88;100.00;-17125.47;5032266;28;20026;-75
2024/01/11 02:11:24;;;;;;;29.17;12.48;;;;;;;-148.88;100.00;-17125.47;5032093;28;20473;-76
2024/01/11 02:13:50;;;;;;;30.63;11.88;;;;;;;-148.88;100.00;-17125.47;5032163;28;20079;-76
2024/01/11 02:16:16;;;;;;;34.15;12.18;;;;;;;-148.88;100.00;-17125.47;5033666;28;20075;-76
2024/01/11 02:18:41;;;;;;;32.55;13.00;;;;;;;-148.88;100.00;-17125.47;5031930;28;20045;-75
2024/01/11 02:21:11;;;;;;;38.92;15.30;;;;;;;-148.88;100.00;-17125.47;5032049;28;20029;-76
2024/01/11 02:23:45;;;;;;;38.83;11.98;;;;;;;-148.88;100.00;-17125.47;5033626;28;20380;-75
2024/01/11 02:26:11;;;;;;;26.65;11.45;;;;;;;-148.88;100.00;-17125.47;5033588;28;20033;-75
2024/01/11 02:28:36;;;;;;;30.17;10.85;;;;;;;-148.88;100.00;-17125.47;5033212;28;20076;-76
2024/01/11 02:31:02;;;;;;;35.15;11.40;;;;;;;-148.88;100.00;-17125.47;5033050;28;20108;-76
2024/01/11 02:33:27;;;;;;;47.45;13.95;;;;;;;-148.88;100.00;-17125.47;5031913;28;20025;-75
2024/01/11 02:35:53;;;;;;;29.15;12.70;;;;;;;-148.88;100.00;-17125.47;5033142;28;20057;-75
2024/01/11 02:38:19;;;;;;;37.25;13.98;;;;;;;-148.88;100.00;-17125.47;5033120;28;20021;-75
2024/01/11 02:40:44;;;;;;;51.50;13.90;;;;;;;-148.88;100.00;-17125.47;5031779;28;20044;-75
2024/01/11 02:43:10;;;;;;;33.65;13.18;;;;;;;-148.88;100.00;-17125.47;5033043;28;20418;-75
2024/01/11 02:45:36;;;;;;;35.17;12.25;;;;;;;-148.88;100.00;-17125.47;5033027;28;20021;-75
2024/01/11 02:48:02;;;;;;;28.48;11.40;;;;;;;-148.88;100.00;-17125.47;5033225;28;20060;-75
2024/01/11 02:50:27;;;;;;;34.13;11.38;;;;;;;-148.88;100.00;-17125.47;5031454;28;20021;-76
2024/01/11 02:52:52;;;;;;;28.67;11.52;;;;;;;-148.88;100.00;-17125.47;5033141;28;20025;-75
2024/01/11 02:55:18;;;;;;;33.35;11.88;;;;;;;-148.88;100.00;-17125.47;5032961;28;20021;-75
2024/01/11 02:57:43;;;;;;;38.80;13.82;;;;;;;-148.88;100.00;-17125.47;5033175;28;20384;-75
2024/01/11 03:00:09;;;;;;;34.00;12.05;;;;;;;-148.88;100.00;-17125.47;5032843;28;20392;-75
2024/01/11 03:02:34;;;;;;;26.48;11.52;;;;;;;-148.88;100.00;-17125.47;5033393;28;20064;-75
2024/01/11 03:05:00;;;;;;;25.42;11.05;;;;;;;-148.88;100.00;-17125.47;5032857;28;20025;-75
2024/01/11 03:07:25;;;;;;;29.40;11.80;;;;;;;-148.88;100.00;-17125.47;5032914;28;20028;-75
2024/01/11 03:09:50;;;;;;;31.50;11.20;;;;;;;-148.88;100.00;-17125.47;5034344;28;20029;-75
2024/01/11 03:12:16;;;;;;;29.38;13.23;;;;;;;-148.88;100.00;-17125.47;5036684;28;20026;-75
2024/01/11 03:14:41;;;;;;;34.85;13.57;;;;;;;-148.88;100.00;-17125.47;5037327;28;20021;-75
2024/01/11 03:17:06;;;;;;;31.20;11.75;;;;;;;-148.88;100.00;-17125.47;5035428;28;20075;-75
2024/01/11 03:19:31;;;;;;;42.78;12.70;;;;;;;-148.88;100.00;-17125.47;5036684;28;20029;-75
2024/01/11 03:21:57;;;;;;;29.38;10.23;;;;;;;-148.88;100.00;-17125.47;5036554;28;20416;-75
2024/01/11 03:24:22;;;;;;;35.58;11.65;;;;;;;-148.88;100.00;-17125.47;5036598;28;20113;-75
2024/01/11 03:26:48;;;;;;;33.80;12.90;;;;;;;-148.88;100.00;-17125.47;5036549;28;20488;-75
2024/01/11 03:29:13;;;;;;;35.33;12.43;;;;;;;-148.88;100.00;-17125.47;5035204;28;20108;-75
2024/01/11 03:31:41;;;;;;;30.80;12.30;;;;;;;-148.88;100.00;-17125.47;5036354;28;20496;-75
2024/01/11 03:34:07;;;;;;;28.17;12.35;;;;;;;-148.88;100.00;-17125.47;5036437;28;20075;-75
2024/01/11 03:36:32;;;;;;;36.47;11.70;;;;;;;-148.88;100.00;-17125.47;5036454;28;20060;-75
2024/01/11 03:38:58;;;;;;;29.67;12.10;;;;;;;-148.88;100.00;-17125.47;5036609;28;20053;-75
2024/01/11 03:41:23;;;;;;;29.17;11.02;;;;;;;-148.88;100.00;-17125.47;5035075;28;20029;-75
2024/01/11 03:43:50;;;;;;;29.05;11.63;;;;;;;-148.88;100.00;-17125.47;5036610;28;20029;-75
2024/01/11 03:46:15;;;;;;;32.95;11.18;;;;;;;-148.88;100.00;-17125.47;5036234;28;20404;-75
2024/01/11 03:48:40;;;;;;;38.75;13.50;;;;;;;-148.88;100.00;-17125.47;5036147;28;20033;-75
2024/01/11 03:51:06;;;;;;;34.38;10.50;;;;;;;-148.88;100.00;-17125.47;5036147;28;20036;-75
2024/01/11 03:53:36;;;;;;;35.95;10.68;;;;;;;-148.88;100.00;-17125.47;5036383;28;20025;-75
2024/01/11 03:56:01;;;;;;;32.35;12.65;;;;;;;-148.88;100.00;-17125.47;5036068;28;20036;-75
2024/01/11 03:58:27;;;;;;;34.42;11.98;;;;;;;-148.88;100.00;-17125.47;5036330;28;20029;-75
2024/01/11 04:00:52;;;;;;;31.13;11.65;;;;;;;-148.88;100.00;-17125.47;5035903;28;20079;-75
2024/01/11 04:03:17;;;;;;;32.92;10.98;;;;;;;-148.88;100.00;-17125.47;5035918;28;20040;-75
2024/01/11 04:05:43;;;;;;;29.33;11.82;;;;;;;-148.88;100.00;-17125.47;5034578;28;20026;-75
2024/01/11 04:08:08;;;;;;;41.50;13.93;;;;;;;-148.88;100.00;-17125.47;5035805;28;20056;-75
2024/01/11 04:10:33;;;;;;;34.72;11.35;;;;;;;-148.88;100.00;-17125.47;5034330;28;20079;-75
2024/01/11 04:12:59;;;;;;;38.70;14.40;;;;;;;-148.88;100.00;-17125.47;5035737;28;20083;-75
2024/01/11 04:15:25;;;;;;;36.58;13.75;;;;;;;-148.88;100.00;-17125.47;5035931;28;20026;-75
2024/01/11 04:17:50;;;;;;;24.98;11.23;;;;;;;-148.88;100.00;-17125.47;5035644;28;20033;-74
2024/01/11 04:20:15;;;;;;;26.58;12.10;;;;;;;-148.88;100.00;-17125.47;5035324;28;20033;-75
2024/01/11 04:22:41;;;;;;;29.40;10.95;;;;;;;-148.88;100.00;-17125.47;5035501;28;20027;-74
2024/01/11 04:25:07;;;;;;;26.38;11.45;;;;;;;-148.88;100.00;-17125.47;5034434;28;20072;-74
2024/01/11 04:27:32;;;;;;;32.33;12.70;;;;;;;-148.88;100.00;-17125.47;5035444;28;20083;-75
2024/01/11 04:29:58;;;;;;;32.47;11.68;;;;;;;-148.88;100.00;-17125.47;5034100;28;20477;-74
2024/01/11 04:32:23;;;;;;;35.78;11.80;;;;;;;-148.88;100.00;-17125.47;5035202;28;20022;-75
2024/01/11 04:34:48;;;;;;;35.33;13.43;;;;;;;-148.88;100.00;-17125.47;5035572;28;20032;-74
2024/01/11 04:37:14;;;;;;;28.98;10.30;;;;;;;-148.88;100.00;-17125.47;5033994;28;20028;-75
2024/01/11 04:39:39;;;;;;;29.27;11.88;;;;;;;-148.88;100.00;-17125.47;5035189;28;20029;-74
2024/01/11 04:42:04;;;;;;;27.73;11.43;;;;;;;-148.88;100.00;-17125.47;5035141;28;20048;-75
2024/01/11 04:44:30;;;;;;;31.95;12.85;;;;;;;-148.88;100.00;-17125.47;5035130;28;20026;-75
2024/01/11 04:46:55;;;;;;;30.67;10.93;;;;;;;-148.88;100.00;-17125.47;5033846;28;20403;-74
2024/01/11 04:49:20;;;;;;;28.13;10.90;;;;;;;-148.88;100.00;-17125.47;5035014;28;20466;-75
2024/01/11 04:51:46;;;;;;;24.20;10.13;;;;;;;-148.88;100.00;-17125.47;5034893;28;20029;-74
2024/01/11 04:54:11;;;;;;;32.95;11.40;;;;;;;-148.88;100.00;-17125.47;5035117;28;20033;-73
2024/01/11 04:56:36;;;;;;;28.52;12.27;;;;;;;-148.88;100.00;-17125.47;5034958;28;20029;-74
2024/01/11 04:59:02;;;;;;;29.80;10.70;;;;;;;-148.88;100.00;-17125.47;5035190;28;20030;-75
2024/01/11 05:01:27;;;;;;;36.53;11.63;;;;;;;-148.88;100.00;-17125.47;5034730;28;20477;-74
2024/01/11 05:03:53;;;;;;;31.75;11.82;;;;;;;-148.88;100.00;-17125.47;5035114;28;20022;-74
2024/01/11 05:06:19;;;;;;;32.47;13.27;;;;;;;-148.88;100.00;-17125.47;5034967;28;20025;-74
2024/01/11 05:08:50;;;;;;;35.97;11.43;;;;;;;-148.88;100.00;-17125.47;5034677;28;20029;-74
2024/01/11 05:11:20;;;;;;;33.88;11.90;;;;;;;-148.88;100.00;-17125.47;5034600;28;20022;-74
2024/01/11 05:13:47;;;;;;;43.35;14.02;;;;;;;-148.88;100.00;-17125.47;5034534;28;20488;-74
2024/01/11 05:16:17;;;;;;;47.17;11.82;;;;;;;-148.88;100.00;-17125.47;5033206;28;20032;-75
2024/01/11 05:18:43;;;;;;;33.63;12.57;;;;;;;-148.88;100.00;-17125.47;5034356;28;20400;-74
2024/01/11 05:21:08;;;;;;;32.90;12.93;;;;;;;-148.88;100.00;-17125.47;5034409;28;20022;-75
2024/01/11 05:23:33;;;;;;;33.65;12.57;;;;;;;-148.88;100.00;-17125.47;5034523;28;20030;-74
2024/01/11 05:25:59;;;;;;;35.15;13.70;;;;;;;-148.88;100.00;-17125.47;5034660;28;20028;-74
2024/01/11 05:28:24;;;;;;;30.30;12.23;;;;;;;-148.88;100.00;-17125.47;5033091;28;20032;-74
2024/01/11 05:30:51;;;;;;;33.78;13.07;;;;;;;-148.88;100.00;-17125.47;5034219;28;20022;-74
2024/01/11 05:33:17;;;;;;;29.58;11.75;;;;;;;-148.88;100.00;-17125.47;5033620;28;20476;-74
2024/01/11 05:35:42;;;;;;;36.08;13.75;;;;;;;-148.88;100.00;-17125.47;5034430;28;20056;-74
2024/01/11 05:38:07;;;;;;;29.65;12.05;;;;;;;-148.88;100.00;-17125.47;5034601;28;20075;-74
2024/01/11 05:40:33;;;;;;;35.92;12.25;;;;;;;-148.88;100.00;-17125.47;5034373;28;20104;-74
2024/01/11 05:42:58;;;;;;;31.13;11.45;;;;;;;-148.88;100.00;-17125.47;5034297;28;20017;-73
2024/01/11 05:45:23;;;;;;;22.40;10.45;;;;;;;-148.88;100.00;-17125.47;5033962;28;20041;-73
2024/01/11 05:47:49;;;;;;;30.02;11.80;;;;;;;-148.88;100.00;-17125.47;5033944;28;20029;-74
2024/01/11 05:50:14;;;;;;;42.05;11.13;;;;;;;-148.88;100.00;-17125.47;5032515;28;20025;-73
2024/01/11 05:52:40;;;;;;;32.17;12.10;;;;;;;-148.88;100.00;-17125.47;5033816;28;20026;-73
2024/01/11 05:55:05;;;;;;;29.63;11.80;;;;;;;-148.88;100.00;-17125.47;5032511;28;20036;-73
2024/01/11 05:57:30;;;;;;;25.08;10.23;;;;;;;-148.88;100.00;-17125.47;5033724;28;20021;-73
2024/01/11 05:59:56;;;;;;;25.98;10.00;;;;;;;-148.88;100.00;-17125.47;5033686;28;20040;-73
2024/01/11 06:02:22;;;;;;;23.90;10.50;;;;;;;-148.88;100.00;-17125.47;5033657;28;20022;-73
2024/01/11 06:04:49;;;;;;;24.73;10.25;;;;;;;-148.88;100.00;-17125.47;5033665;28;20025;-73
2024/01/11 06:07:14;;;;;;;29.42;10.93;;;;;;;-148.88;100.00;-17125.47;5033532;28;20029;-73
2024/01/11 06:09:39;;;;;;;23.23;9.50;;;;;;;-148.88;100.00;-17125.47;5033693;28;20062;-73
2024/01/11 06:12:05;;;;;;;28.42;10.30;;;;;;;-148.88;100.00;-17125.47;5033413;28;20029;-73
2024/01/11 06:14:30;;;;;;;26.63;10.27;;;;;;;-148.88;100.00;-17125.47;5033688;28;20115;-73
2024/01/11 06:16:55;;;;;;;34.55;11.38;;;;;;;-148.88;100.00;-17125.47;5033540;28;20075;-73
2024/01/11 06:19:23;;;;;;;25.75;9.93;;;;;;;-148.88;100.00;-17125.47;5033699;28;20385;-73
2024/01/11 06:21:48;;;;;;;26.67;9.73;;;;;;;-148.88;100.00;-17125.47;5033262;28;20024;-73
2024/01/11 06:24:13;;;;;;;24.80;10.40;;;;;;;-148.88;100.00;-17125.47;5033295;28;20022;-73
2024/01/11 06:26:39;;;;;;;27.25;11.10;;;;;;;-148.88;100.00;-17125.47;5033195;28;20025;-73
2024/01/11 06:29:04;;;;;;;32.35;11.45;;;;;;;-148.88;100.00;-17125.47;5033808;28;20144;-73
2024/01/11 06:31:29;;;;;;;28.65;10.73;;;;;;;-148.88;100.00;-17125.47;5031831;28;20083;-73
2024/01/11 06:33:55;;;;;;;28.63;11.43;;;;;;;-148.88;100.00;-17125.47;5033189;28;20067;-73
2024/01/11 06:36:21;;;;;;;29.30;11.32;;;;;;;-148.88;100.00;-17125.47;5033281;28;20112;-73
2024/01/11 06:38:46;;;;;;;27.23;9.85;;;;;;;-148.88;100.00;-17125.47;5033321;28;20021;-73
2024/01/11 06:41:11;;;;;;;31.70;10.88;;;;;;;-148.88;100.00;-17125.47;5033199;28;20021;-73
2024/01/11 06:43:37;;;;;;;31.67;12.35;;;;;;;-148.88;100.00;-17125.47;5032774;28;20096;-73
2024/01/11 06:46:05;;;;;;;32.05;11.48;;;;;;;-148.88;100.00;-17125.47;5032658;28;20480;-73
2024/01/11 06:48:31;;;;;;;29.17;10.98;;;;;;;-148.88;100.00;-17125.47;5033004;28;20112;-73
2024/01/11 06:50:57;;;;;;;27.30;10.40;;;;;;;-148.88;100.00;-17125.47;5031554;28;20025;-73
2024/01/11 06:53:22;;;;;;;31.58;11.95;;;;;;;-148.88;100.00;-17125.47;5033471;28;20387;-73
2024/01/11 06:55:48;;;;;;;35.08;11.35;;;;;;;-148.88;100.00;-17125.47;5033498;28;20105;-72
2024/01/11 06:58:13;;;;;;;30.15;11.82;;;;;;;-148.88;100.00;-17125.47;5033152;28;20025;-72
2024/01/11 07:00:42;;;;;;;28.55;11.80;;;;;;;-148.88;100.00;-17125.47;5033142;28;20018;-73
2024/01/11 07:03:09;;;;;;;29.45;12.95;;;;;;;-148.88;100.00;-17125.47;5031783;28;20018;-73
2024/01/11 07:05:35;;;;;;;31.48;11.60;;;;;;;-148.88;100.00;-17125.47;5032824;28;20079;-73
2024/01/11 07:08:00;;;;;;;32.33;11.88;;;;;;;-148.88;100.00;-17125.47;5032831;28;20025;-73
2024/01/11 07:10:25;;;;;;;28.35;10.63;;;;;;;-148.88;100.00;-17125.47;5032643;28;20033;-73
2024/01/11 07:12:51;;;;;;;30.30;12.02;;;;;;;-148.88;100.00;-17125.47;5032772;28;20048;-73
2024/01/11 07:15:17;;;;;;;34.47;12.38;;;;;;;-148.88;100.00;-17125.47;5032778;28;20029;-73
2024/01/11 07:17:42;;;;;;;31.80;11.55;;;;;;;-148.88;100.00;-17125.47;5032875;28;20036;-73
2024/01/11 07:20:09;;;;;;;25.52;10.98;;;;;;;-148.88;100.00;-17125.47;5033215;28;20030;-74
2024/01/11 07:22:34;;;;;;;28.65;10.10;;;;;;;-148.88;100.00;-17125.47;5033035;28;20073;-73
2024/01/11 07:24:59;;;;;;;28.23;11.73;;;;;;;-148.88;100.00;-17125.47;5032656;28;20555;-72
2024/01/11 07:27:25;;;;;;;26.83;12.38;;;;;;;-148.88;100.00;-17125.47;5032733;28;20104;-73
2024/01/11 07:29:51;;;;;;;32.55;12.75;;;;;;;-148.88;100.00;-17125.47;5032600;28;20503;-72
2024/01/11 07:32:16;;;;;;;37.35;12.95;;;;;;;-148.88;100.00;-17125.47;5032487;28;20366;-73
2024/01/11 07:34:41;;;;;;;34.92;12.13;;;;;;;-148.88;100.00;-17125.47;5032503;28;20030;-73
2024/01/11 07:37:07;;;;;;;30.58;10.80;;;;;;;-148.88;100.00;-17125.47;5032641;28;20369;-73
2024/01/11 07:39:33;;;;;;;27.88;11.13;;;;;;;-148.88;100.00;-17125.47;5032552;28;20053;-73
2024/01/11 07:41:58;;;;;;;38.60;12.45;;;;;;;-148.88;100.00;-17125.47;5032465;28;20056;-73
2024/01/11 07:44:23;;;;;;;26.02;10.45;;;;;;;-148.88;100.00;-17125.47;5033007;28;20071;-73
2024/01/11 07:46:49;;;;;;;27.77;10.88;;;;;;;-148.88;100.00;-17125.47;5032640;28;20037;-73
2024/01/11 07:49:15;;;;;;;29.15;11.60;;;;;;;-148.88;100.00;-17125.47;5031173;28;20029;-73
2024/01/11 07:51:40;;;;;;;22.30;9.90;;;;;;;-148.88;100.00;-17125.47;5032287;28;20380;-73
2024/01/11 07:54:06;;;;;;;30.77;10.73;;;;;;;-148.88;100.00;-17125.47;5032310;28;20021;-73
2024/01/11 07:56:31;;;;;;;26.48;10.02;;;;;;;-148.88;100.00;-17125.47;5034648;28;20029;-73
2024/01/11 07:58:56;;;;;;;37.55;12.00;;;;;;;-148.88;100.00;-17125.47;5036140;28;20021;-73
2024/01/11 08:01:22;;;;;;;37.45;10.23;;;;;;;-148.88;100.00;-17125.47;5035987;28;20029;-73
2024/01/11 08:03:47;;;;;;;30.15;12.27;;;;;;;-148.88;100.00;-17125.47;5035710;28;20029;-73
2024/01/11 08:06:13;;;;;;;34.30;11.63;;;;;;;-148.88;100.00;-17125.47;5036064;28;20022;-73
2024/01/11 08:08:41;;;;;;;34.10;13.68;;;;;;;-148.88;100.00;-17125.47;5035702;28;20499;-73
2024/01/11 08:11:10;;;;;;;31.55;11.90;;;;;;;-148.88;100.00;-17125.47;5035729;28;20060;-73
2024/01/11 08:13:37;;;;;;;29.08;10.85;;;;;;;-148.88;100.00;-17125.47;5035798;28;20033;-73
2024/01/11 08:16:04;;;;;;;32.15;12.80;;;;;;;-148.88;100.00;-17125.47;5035511;28;20450;-72
2024/01/11 08:18:33;;;;;;;33.75;14.43;;;;;;;-148.88;100.00;-17125.47;5035309;28;20531;-73
2024/01/11 08:20:58;;;;;;;37.47;13.30;;;;;;;-148.88;100.00;-17125.47;5034494;28;20481;-73
2024/01/11 08:23:23;;;;;;;31.05;12.13;;;;;;;-148.88;100.00;-17125.47;5034565;28;20029;-73
2024/01/11 08:25:49;;;;;;;29.83;10.65;;;;;;;-148.88;100.00;-17125.47;5034335;28;20104;-73
2024/01/11 08:28:14;;;;;;;36.97;13.48;;;;;;;-148.88;100.00;-17125.47;5034707;28;20039;-73
2024/01/11 08:30:40;;;;;;;36.05;12.07;;;;;;;-148.88;100.00;-17125.47;5034244;28;20030;-73
2024/01/11 08:33:05;;;;;;;36.03;11.10;;;;;;;-148.88;100.00;-17125.47;5034110;28;20533;-73
2024/01/11 08:35:32;;;;;;;34.25;11.98;;;;;;;-148.88;100.00;-17125.47;5034071;28;20021;-73
2024/01/11 08:37:57;;;;;;;31.88;11.90;;;;;;;-148.88;100.00;-17125.47;5034053;28;20032;-73
2024/01/11 08:40:23;;;;;;;33.40;13.05;;;;;;;-148.88;100.00;-17125.47;5034120;28;20109;-74
2024/01/11 08:42:48;;;;;;;28.30;11.35;;;;;;;-148.88;100.00;-17125.47;5034397;28;20013;-73
2024/01/11 08:45:17;;;;;;;31.23;10.77;;;;;;;-148.88;100.00;-17125.47;5033962;28;20099;-73
2024/01/11 08:47:44;;;;;;;32.90;10.95;;;;;;;-148.88;100.00;-17125.47;5034167;28;20035;-73
2024/01/11 08:50:13;;;;;;;25.75;10.75;;;;;;;-148.88;100.00;-17125.47;5033776;28;20060;-73
2024/01/11 08:52:39;;;;;;;36.72;12.85;;;;;;;-148.88;100.00;-17125.47;5033746;28;20036;-73
2024/01/11 08:55:05;;;;;;;30.40;10.80;;;;;;;-148.88;100.00;-17125.47;5033772;28;20029;-73
2024/01/11 08:57:30;;;;;;;35.55;10.43;;;;;;;-148.88;100.00;-17125.47;5033788;28;20022;-73
2024/01/11 08:59:56;;;;;;;31.13;9.95;;;;;;;-148.88;100.00;-17125.47;5033668;28;20025;-73
2024/01/11 09:02:21;;;;;;;27.00;10.95;;;;;;;-148.88;100.00;-17125.47;5033851;28;20071;-73
2024/01/11 09:04:47;;;;;;;43.28;11.88;;;;;;;-148.88;100.00;-17125.47;5032377;28;20029;-73
2024/01/11 09:07:12;;;;;;;34.80;11.88;;;;;;;-148.88;100.00;-17125.47;5032694;28;20078;-73
2024/01/11 09:09:38;;;;;;;30.58;11.77;;;;;;;-148.88;100.00;-17125.47;5033880;28;20499;-73
2024/01/11 09:12:03;;;;;;;22.80;9.27;;;;;;;-148.88;100.00;-17125.47;5033441;28;20388;-73
2024/01/11 09:14:29;;;;;;;29.23;10.63;;;;;;;-148.88;100.00;-17125.47;5033749;28;20507;-73
2024/01/11 09:16:54;;;;;;;38.25;12.32;;;;;;;-148.88;100.00;-17125.47;5032257;28;20075;-73
2024/01/11 09:19:20;;;;;;;30.77;10.93;;;;;;;-148.88;100.00;-17125.47;4997160;28;1054371;-73
2024/01/11 09:21:45;;;;;;;30.90;11.88;;;;;;;-148.88;100.00;-17125.47;5034242;28;20018;-73
2024/01/11 09:24:10;;;;;;;30.75;12.40;;;;;;;-148.88;100.00;-17125.47;5033262;28;20025;-73
2024/01/11 09:26:36;;;;;;;30.95;12.60;;;;;;;-148.88;100.00;-17125.47;5034311;28;20021;-73
2024/01/11 09:29:02;;;;;;;28.92;11.07;;;;;;;-148.88;100.00;-17125.47;5034343;28;20024;-73
2024/01/11 09:31:27;;;;;;;29.73;11.15;;;;;;;-148.88;100.00;-17125.47;5034195;28;20018;-73
2024/01/11 09:33:52;;;;;;;32.40;11.23;;;;;;;-148.88;100.00;-17125.47;5032969;28;20080;-73
2024/01/11 09:36:18;;;;;;;26.92;11.10;;;;;;;-148.88;100.00;-17125.47;5034593;28;20033;-72
2024/01/11 09:38:43;;;;;;;32.65;11.10;;;;;;;-148.88;100.00;-17125.47;5032812;28;20067;-73
2024/01/11 09:41:13;;;;;;;23.45;10.32;;;;;;;-148.88;100.00;-17125.47;5034130;28;20029;-73
2024/01/11 09:43:43;;;;;;;27.52;12.07;;;;;;;-148.88;100.00;-17125.47;5032721;28;20129;-74
2024/01/11 09:46:10;;;;;;;31.73;11.77;;;;;;;-148.88;100.00;-17125.47;5033870;28;20075;-73
2024/01/11 09:48:38;;;;;;;28.00;12.95;;;;;;;-148.88;100.00;-17125.47;5034076;28;20024;-73
2024/01/11 09:51:07;;;;;;;22.75;11.80;;;;;;;-148.88;100.00;-17125.47;5033576;28;20025;-72
2024/01/11 09:53:34;;;;;;;34.55;13.15;;;;;;;-148.88;100.00;-17125.47;5033757;28;20048;-72
2024/01/11 09:56:00;;;;;;;29.02;11.27;;;;;;;-148.88;100.00;-17125.47;5033916;28;20025;-72
2024/01/11 09:58:26;;;;;;;26.80;11.23;;;;;;;-148.88;100.00;-17125.47;5033697;28;20022;-72
2024/01/11 10:00:56;;;;;;;24.63;10.95;;;;;;;-148.88;100.00;-17125.47;5033523;28;20446;-72
2024/01/11 10:03:23;;;;;;;32.25;12.15;;;;;;;-148.88;100.00;-17125.47;5033805;28;20025;-72
2024/01/11 10:05:50;;;;;;;32.67;12.45;;;;;;;-148.88;100.00;-17125.47;5033970;28;20030;-73
2024/01/11 10:08:19;;;;;;;27.83;11.23;;;;;;;-148.88;100.00;-17125.47;5033521;28;20032;-73
2024/01/11 10:10:44;;;;;;;30.77;11.60;;;;;;;-148.88;100.00;-17125.47;5033367;28;20101;-73
2024/01/11 10:13:10;;;;;;;29.80;12.15;;;;;;;-148.88;100.00;-17125.47;5033751;28;20452;-73
2024/01/11 10:15:36;;;;;;;29.80;11.27;;;;;;;-148.88;100.00;-17125.47;5033888;28;20029;-73
2024/01/11 10:18:01;;;;;;;27.35;11.85;;;;;;;-148.88;100.00;-17125.47;5033341;28;20151;-73
2024/01/11 10:20:29;;;;;;;27.83;12.05;;;;;;;-148.88;100.00;-17125.47;5033264;28;20065;-73
2024/01/11 10:22:56;;;;;;;26.83;11.00;;;;;;;-148.88;100.00;-17125.47;5033494;28;20029;-73
2024/01/11 10:25:22;;;;;;;33.72;12.40;;;;;;;-148.88;100.00;-17125.47;5033658;28;20408;-73
2024/01/11 10:27:48;;;;;;;31.58;12.73;;;;;;;-148.88;100.00;-17125.47;5033192;28;20022;-73
2024/01/11 10:30:16;;;;;;;27.92;12.15;;;;;;;-148.88;100.00;-17125.47;5033335;28;20025;-73
2024/01/11 10:32:42;;;;;;;26.75;10.90;;;;;;;-148.88;100.00;-17125.47;5033326;28;20048;-73
2024/01/11 10:35:07;;;;;;;37.00;13.23;;;;;;;-148.88;100.00;-17125.47;5033758;28;20384;-72
2024/01/11 10:37:33;;;;;;;29.65;12.25;;;;;;;-148.88;100.00;-17125.47;5033405;28;20083;-73
2024/01/11 10:40:15;;;;;;;30.08;12.77;;;;;;;-148.88;100.00;-17125.47;5033125;28;20472;-73